Time;durP1;ratioP1;P1;durP2;ratioP2;P2;SDS_P1;SDS_P2;PMS_P1;PMS_P2;Temp;Humidity;BMP_temperature;BMP_pressure;BME280_temperature;BME280_humidity;BME280_pressure;Samples;Min_cycle;Max_cycle;Signal;HPM_P1;HPM_P2
2022/07/06 00:01:59;;;;;;;5.13;4.63;;;;;;;18.76;79.35;98650.69;4147235;28;20655;-87
2022/07/06 00:04:03;;;;;;;5.00;4.50;;;;;;;18.74;78.29;98660.59;4139193;28;20748;-87
2022/07/06 00:06:07;;;;;;;4.67;4.27;;;;;;;18.71;78.62;98652.94;4121617;28;20658;-87
2022/07/06 00:08:10;;;;;;;6.20;4.83;;;;;;;18.65;78.50;98664.06;4141456;28;20638;-87
2022/07/06 00:10:14;;;;;;;5.87;5.10;;;;;;;18.57;78.53;98656.00;4140272;28;21003;-88
2022/07/06 00:12:17;;;;;;;6.23;4.70;;;;;;;18.51;78.74;98660.03;4141385;28;21231;-87
2022/07/06 00:14:20;;;;;;;7.30;4.80;;;;;;;18.46;78.33;98664.06;4136598;28;20646;-87
2022/07/06 00:16:23;;;;;;;5.10;4.60;;;;;;;18.40;78.80;98658.50;4117186;28;20646;-87
2022/07/06 00:18:27;;;;;;;5.00;4.60;;;;;;;18.35;79.46;98664.22;4139580;28;20655;-87
2022/07/06 00:20:30;;;;;;;7.80;5.37;;;;;;;18.34;80.34;98669.63;4124673;28;20672;-87
2022/07/06 00:22:34;;;;;;;5.73;5.07;;;;;;;18.35;79.75;98672.13;4137176;28;20629;-87
2022/07/06 00:24:37;;;;;;;6.57;5.07;;;;;;;18.36;80.17;98675.59;4113021;28;20644;-87
2022/07/06 00:26:40;;;;;;;5.50;4.87;;;;;;;18.39;79.58;98670.03;4142987;28;21291;-87
2022/07/06 00:28:43;;;;;;;6.60;5.20;;;;;;;18.39;79.93;98673.53;4142056;28;20634;-87
2022/07/06 00:30:47;;;;;;;5.53;5.03;;;;;;;18.41;80.18;98671.56;4119515;28;20643;-87
2022/07/06 00:32:50;;;;;;;5.70;4.93;;;;;;;18.38;79.40;98668.38;4138406;28;20698;-87
2022/07/06 00:34:53;;;;;;;5.60;4.97;;;;;;;18.35;79.92;98661.56;4125687;28;20646;-87
2022/07/06 00:36:58;;;;;;;5.60;4.80;;;;;;;18.33;80.45;98671.44;4136704;28;20622;-87
2022/07/06 00:39:05;;;;;;;6.30;5.23;;;;;;;18.29;80.68;98674.50;4116950;28;20742;-87
2022/07/06 00:41:08;;;;;;;6.47;4.90;;;;;;;18.24;80.92;98666.97;4124230;28;20639;-87
2022/07/06 00:43:11;;;;;;;5.30;4.90;;;;;;;18.22;81.06;98671.59;4159012;28;20674;-87
2022/07/06 00:45:16;;;;;;;5.50;4.97;;;;;;;18.23;80.70;98673.22;4132338;28;20641;-87
2022/07/06 00:47:19;;;;;;;5.37;4.90;;;;;;;18.21;80.88;98669.06;4127021;28;20653;-87
2022/07/06 00:51:43;;;;;;;6.33;5.40;;;;;;;18.12;81.15;98669.88;4122642;28;20643;-87
2022/07/06 00:53:47;;;;;;;5.70;5.20;;;;;;;18.13;81.55;98677.69;4137379;28;21060;-87
2022/07/06 00:55:51;;;;;;;5.80;5.03;;;;;;;18.17;80.65;98672.94;4142455;28;20644;-87
2022/07/06 00:57:55;;;;;;;5.80;5.30;;;;;;;18.20;80.40;98677.97;4124244;28;21225;-87
2022/07/06 01:00:03;;;;;;;5.93;4.87;;;;;;;18.17;80.00;98678.22;4125188;28;20739;-87
2022/07/06 01:02:08;;;;;;;5.73;5.23;;;;;;;18.15;80.48;98678.38;4133858;28;20665;-87
2022/07/06 01:04:11;;;;;;;6.70;5.40;;;;;;;18.12;80.90;98686.53;4120643;28;21444;-87
2022/07/06 01:06:14;;;;;;;5.70;4.70;;;;;;;18.06;81.35;98676.50;4126538;28;20753;-87
2022/07/06 01:08:18;;;;;;;7.93;5.40;;;;;;;18.03;81.50;98676.78;4130538;28;20641;-87
2022/07/06 01:10:22;;;;;;;5.53;5.03;;;;;;;18.02;80.42;98674.28;4141325;28;20724;-87
2022/07/06 01:12:27;;;;;;;6.27;5.37;;;;;;;17.98;81.59;98676.38;4138767;28;20637;-87
2022/07/06 01:14:30;;;;;;;5.60;5.10;;;;;;;17.96;81.13;98669.53;4124233;28;20646;-87
2022/07/06 01:16:33;;;;;;;7.40;5.20;;;;;;;17.93;81.16;98669.81;4126073;28;20691;-87
2022/07/06 01:18:37;;;;;;;5.47;4.90;;;;;;;17.90;82.20;98672.72;4132696;28;20715;-87
2022/07/06 01:20:41;;;;;;;5.77;5.17;;;;;;;17.89;82.84;98667.59;4118388;28;20686;-87
2022/07/06 01:22:45;;;;;;;5.73;4.90;;;;;;;17.85;82.63;98667.03;4124085;28;20631;-87
2022/07/06 01:24:48;;;;;;;6.80;5.17;;;;;;;17.84;81.11;98670.63;4126802;28;21455;-87
2022/07/06 01:26:51;;;;;;;5.93;5.43;;;;;;;17.82;82.83;98664.66;4130652;28;20644;-87
2022/07/06 01:28:54;;;;;;;6.00;5.40;;;;;;;17.81;82.67;98664.78;4130714;28;20634;-87
2022/07/06 01:30:57;;;;;;;6.70;5.30;;;;;;;17.78;81.67;98662.41;4132219;28;20649;-87
2022/07/06 01:33:00;;;;;;;6.23;5.63;;;;;;;17.75;82.05;98667.97;4122683;28;20688;-87
2022/07/06 01:35:04;;;;;;;6.63;5.80;;;;;;;17.75;81.74;98662.69;4125990;28;20691;-87
2022/07/06 01:37:09;;;;;;;5.60;5.10;;;;;;;17.75;81.95;98663.50;4118737;28;21324;-87
2022/07/06 01:39:11;;;;;;;6.33;5.73;;;;;;;17.73;82.81;98660.19;4119158;28;20639;-87
2022/07/06 01:41:15;;;;;;;6.23;5.63;;;;;;;17.74;81.72;98663.66;4130079;28;20700;-87
2022/07/06 01:43:18;;;;;;;6.20;5.60;;;;;;;17.72;82.20;98666.41;4129141;28;20625;-87
2022/07/06 01:45:21;;;;;;;6.40;5.80;;;;;;;17.69;82.44;98666.69;4144570;28;21026;-87
2022/07/06 01:47:25;;;;;;;6.27;5.77;;;;;;;17.63;81.99;98661.94;4141537;28;20647;-87
2022/07/06 01:49:28;;;;;;;6.20;5.33;;;;;;;17.58;83.14;98661.53;4136615;28;21073;-87
2022/07/06 01:51:33;;;;;;;6.47;5.87;;;;;;;17.54;82.62;98665.38;4144126;28;20738;-87
2022/07/06 01:53:38;;;;;;;6.10;5.50;;;;;;;17.49;82.86;98659.69;4124297;28;20752;-87
2022/07/06 01:55:43;;;;;;;6.27;5.67;;;;;;;17.44;83.89;98660.22;4156933;28;21187;-87
2022/07/06 01:57:46;;;;;;;6.40;5.80;;;;;;;17.39;82.38;98657.97;4144043;28;20633;-87
2022/07/06 01:59:49;;;;;;;6.33;5.83;;;;;;;17.34;83.23;98660.19;4138023;28;20648;-87
2022/07/06 02:01:53;;;;;;;6.60;5.93;;;;;;;17.30;82.71;98660.56;4129805;28;20632;-87
2022/07/06 02:03:57;;;;;;;7.27;6.13;;;;;;;17.28;83.70;98662.53;4127240;28;20696;-87
2022/07/06 02:06:00;;;;;;;7.13;6.43;;;;;;;17.24;83.25;98664.56;4124717;28;20657;-87
2022/07/06 02:08:04;;;;;;;7.40;6.80;;;;;;;17.19;82.73;98661.47;4141375;28;20644;-87
2022/07/06 02:10:09;;;;;;;6.73;6.07;;;;;;;17.12;83.66;98656.84;4123856;28;21412;-87
2022/07/06 02:12:13;;;;;;;6.50;5.90;;;;;;;17.08;84.58;98668.63;4129352;28;20646;-87
2022/07/06 02:14:16;;;;;;;7.17;6.57;;;;;;;17.04;84.49;98667.22;4126640;28;20634;-87
2022/07/06 02:16:19;;;;;;;9.50;6.50;;;;;;;17.02;83.33;98671.78;4127919;28;20668;-88
2022/07/06 02:18:22;;;;;;;11.63;7.30;;;;;;;16.98;82.98;98670.38;4135641;28;21081;-87
2022/07/06 02:20:26;;;;;;;7.13;6.53;;;;;;;16.97;84.19;98673.97;4125445;28;21180;-87
2022/07/06 02:22:29;;;;;;;7.60;6.80;;;;;;;16.95;84.23;98675.06;4142814;28;20739;-87
2022/07/06 02:24:35;;;;;;;7.80;7.10;;;;;;;16.94;84.33;98671.59;4140341;28;20703;-87
2022/07/06 02:26:41;;;;;;;6.67;6.13;;;;;;;16.93;84.48;98675.19;4128907;28;20632;-87
2022/07/06 02:28:45;;;;;;;7.27;6.57;;;;;;;16.90;85.14;98680.72;4142271;28;20700;-87
2022/07/06 02:30:48;;;;;;;7.33;6.57;;;;;;;16.90;84.35;98683.38;4141057;28;20679;-88
2022/07/06 02:32:51;;;;;;;7.60;6.90;;;;;;;16.91;85.05;98682.38;4153402;28;20679;-87
2022/07/06 02:34:58;;;;;;;7.50;6.70;;;;;;;16.92;84.58;98688.50;4138176;28;20648;-87
2022/07/06 02:37:02;;;;;;;6.97;6.30;;;;;;;16.89;84.16;98679.06;4125919;28;20644;-87
2022/07/06 02:39:05;;;;;;;7.00;6.30;;;;;;;16.87;83.65;98672.22;4124021;28;20641;-87
2022/07/06 02:41:08;;;;;;;7.60;6.73;;;;;;;16.79;84.13;98679.94;4142428;28;20631;-87
2022/07/06 02:43:13;;;;;;;7.03;6.43;;;;;;;16.73;83.48;98676.03;4138984;28;21301;-87
2022/07/06 02:45:17;;;;;;;9.93;6.07;;;;;;;16.67;83.40;98673.91;4141362;28;20654;-87
2022/07/06 02:47:20;;;;;;;7.07;6.37;;;;;;;16.61;85.19;98677.06;4128877;28;20635;-87
2022/07/06 02:49:23;;;;;;;6.73;6.13;;;;;;;16.55;85.16;98685.47;4129989;28;20702;-86
2022/07/06 02:51:27;;;;;;;8.50;5.80;;;;;;;16.52;83.31;98680.47;4140646;28;20631;-87
2022/07/06 02:53:31;;;;;;;9.30;7.00;;;;;;;16.53;84.32;98684.75;4129338;28;20794;-87
2022/07/06 02:55:35;;;;;;;10.40;7.63;;;;;;;16.51;85.86;98684.03;4125788;28;20632;-87
2022/07/06 02:57:40;;;;;;;7.70;6.20;;;;;;;16.53;85.99;98691.81;4127867;28;20730;-87
2022/07/06 02:59:45;;;;;;;6.87;6.20;;;;;;;16.56;84.16;98684.50;4158372;28;20639;-86
2022/07/06 03:01:48;;;;;;;7.23;6.53;;;;;;;16.61;85.25;98695.50;4120790;28;20647;-87
2022/07/06 03:03:52;;;;;;;7.33;6.20;;;;;;;16.64;83.49;98699.66;4139716;28;20675;-87
2022/07/06 03:05:56;;;;;;;7.27;6.50;;;;;;;16.59;84.80;98696.59;4137001;28;20724;-88
2022/07/06 03:07:59;;;;;;;7.10;6.40;;;;;;;16.52;84.97;98700.66;4126382;28;20661;-87
2022/07/06 03:10:03;;;;;;;7.33;6.63;;;;;;;16.46;84.12;98705.63;4128378;28;20629;-87
2022/07/06 03:12:08;;;;;;;7.30;6.60;;;;;;;16.38;83.42;98708.06;4152869;28;21087;-87
2022/07/06 03:14:11;;;;;;;7.17;6.50;;;;;;;16.31;83.78;98706.88;4139970;28;20675;-87
2022/07/06 03:16:19;;;;;;;8.60;6.57;;;;;;;16.25;84.20;98702.94;4129848;28;20636;-87
2022/07/06 03:18:22;;;;;;;7.50;6.80;;;;;;;16.22;84.09;98704.97;4125985;28;20651;-87
2022/07/06 03:20:26;;;;;;;7.00;6.30;;;;;;;16.19;86.40;98703.41;4139717;28;20629;-87
2022/07/06 03:22:53;;;;;;;7.20;6.53;;;;;;;16.22;84.81;98705.84;4127988;28;20654;-87
2022/07/06 03:24:56;;;;;;;6.73;6.20;;;;;;;16.21;85.95;98712.00;4120471;28;20676;-87
2022/07/06 03:27:00;;;;;;;8.03;7.07;;;;;;;16.21;85.13;98713.81;4148043;28;21100;-87
2022/07/06 03:29:04;;;;;;;8.47;6.70;;;;;;;16.17;84.37;98709.75;4142266;28;20746;-87
2022/07/06 03:31:07;;;;;;;6.67;5.87;;;;;;;16.10;84.70;98714.69;4125725;28;20643;-88
2022/07/06 03:33:12;;;;;;;6.87;6.30;;;;;;;16.06;84.90;98712.41;4142860;28;20729;-87
2022/07/06 03:35:16;;;;;;;7.47;6.77;;;;;;;16.01;84.52;98716.38;4129580;28;20629;-87
2022/07/06 03:37:20;;;;;;;7.63;6.43;;;;;;;16.03;84.47;98717.94;4140498;28;21067;-87
2022/07/06 03:39:23;;;;;;;7.50;6.87;;;;;;;16.05;84.57;98718.63;4128469;28;20635;-87
2022/07/06 03:41:27;;;;;;;7.40;6.70;;;;;;;16.05;85.72;98716.00;4144493;28;21234;-87
2022/07/06 03:43:32;;;;;;;7.73;6.77;;;;;;;16.08;84.48;98723.66;4127490;28;20631;-87
2022/07/06 03:45:35;;;;;;;8.30;6.43;;;;;;;16.10;85.22;98719.09;4127417;28;20686;-87
2022/07/06 03:47:39;;;;;;;7.27;6.67;;;;;;;16.13;85.67;98726.75;4138647;28;20699;-87
2022/07/06 03:49:44;;;;;;;10.60;9.70;;;;;;;16.10;85.52;98729.63;4126395;28;20642;-87
2022/07/06 03:51:47;;;;;;;10.03;9.03;;;;;;;16.07;85.37;98725.47;4141173;28;20730;-87
2022/07/06 03:53:50;;;;;;;8.20;7.40;;;;;;;16.04;85.77;98730.97;4126234;28;20663;-87
2022/07/06 03:58:16;;;;;;;7.77;6.97;;;;;;;16.02;86.56;98726.78;4124797;28;21207;-87
2022/07/06 04:00:20;;;;;;;7.40;6.80;;;;;;;16.03;86.93;98734.53;4138338;28;20651;-87
2022/07/06 04:02:30;;;;;;;8.20;7.40;;;;;;;16.05;86.72;98726.53;4123907;28;20685;-87
2022/07/06 04:04:35;;;;;;;7.17;6.57;;;;;;;16.07;86.01;98733.34;4142127;28;20637;-87
2022/07/06 04:06:39;;;;;;;7.43;6.73;;;;;;;16.09;85.51;98734.06;4141671;28;20792;-87
2022/07/06 04:08:43;;;;;;;7.70;6.97;;;;;;;16.10;86.66;98737.50;4125616;28;20660;-87
2022/07/06 04:10:47;;;;;;;9.63;7.10;;;;;;;16.09;85.65;98738.50;4139866;28;20648;-87
2022/07/06 04:12:50;;;;;;;9.43;7.60;;;;;;;16.07;86.38;98740.38;4144257;28;20650;-87
2022/07/06 04:14:57;;;;;;;7.57;6.87;;;;;;;16.07;86.68;98738.63;4139960;28;20688;-87
2022/07/06 04:17:51;;;;;;;7.63;6.93;;;;;;;16.01;85.64;98735.63;4139382;28;20652;-87
2022/07/06 04:19:24;;;;;;;7.30;6.70;;;;;;;16.00;85.00;98749.75;4140049;28;21089;-87
2022/07/06 04:21:28;;;;;;;7.80;7.13;;;;;;;16.03;85.19;98744.25;4144326;28;20638;-87
2022/07/06 04:23:32;;;;;;;7.57;6.87;;;;;;;16.06;85.43;98747.47;4129540;28;21054;-87
2022/07/06 04:25:37;;;;;;;8.30;7.47;;;;;;;16.09;86.41;98749.03;4142879;28;20657;-87
2022/07/06 04:27:42;;;;;;;8.50;7.70;;;;;;;16.10;86.17;98750.66;4129566;28;20704;-87
2022/07/06 04:29:54;;;;;;;8.40;7.60;;;;;;;16.10;86.42;98755.94;4156062;28;20770;-89
2022/07/06 04:31:57;;;;;;;10.90;7.10;;;;;;;16.08;85.66;98756.06;4124505;28;20655;-87
2022/07/06 04:34:01;;;;;;;8.83;7.50;;;;;;;16.10;84.56;98750.66;4142902;28;20659;-87
2022/07/06 04:36:05;;;;;;;7.90;7.10;;;;;;;16.16;86.28;98760.72;4123004;28;20673;-88
2022/07/06 04:38:15;;;;;;;10.20;7.03;;;;;;;16.22;85.39;98762.88;4122912;28;20674;-89
2022/07/06 04:40:20;;;;;;;8.30;7.43;;;;;;;16.27;86.20;98760.75;4123549;28;20734;-89
2022/07/06 04:42:27;;;;;;;10.40;7.30;;;;;;;16.32;84.64;98759.41;4145109;28;20652;-88
2022/07/06 04:44:31;;;;;;;7.30;6.70;;;;;;;16.37;86.04;98769.56;4115525;28;21280;-86
2022/07/06 04:46:34;;;;;;;12.40;7.30;;;;;;;16.40;85.74;98774.56;4125941;28;20664;-88
2022/07/06 04:48:39;;;;;;;7.40;6.60;;;;;;;16.43;84.95;98775.16;4131753;28;21251;-88
2022/07/06 04:50:46;;;;;;;8.40;7.00;;;;;;;16.46;85.19;98768.81;4135354;28;21426;-88
2022/07/06 04:52:55;;;;;;;10.20;7.20;;;;;;;16.50;86.88;98778.97;4120532;28;21044;-89
2022/07/06 04:54:59;;;;;;;8.03;7.33;;;;;;;16.53;87.33;98778.72;4134854;28;20653;-89
2022/07/06 04:57:04;;;;;;;9.37;7.87;;;;;;;16.57;86.01;98788.06;4131393;28;20705;-89
2022/07/06 04:59:15;;;;;;;7.73;7.03;;;;;;;16.63;86.07;98780.50;4126098;28;20619;-88
2022/07/06 05:01:20;;;;;;;8.20;7.40;;;;;;;16.71;84.96;98780.69;4130516;28;21003;-88
2022/07/06 05:03:23;;;;;;;8.27;7.40;;;;;;;16.79;86.34;98787.97;4129844;28;20800;-88
2022/07/06 05:05:26;;;;;;;8.10;7.40;;;;;;;16.87;84.72;98781.13;4149481;28;20632;-88
2022/07/06 05:07:32;;;;;;;8.13;6.80;;;;;;;16.98;84.17;98787.16;4126211;28;20888;-88
2022/07/06 05:09:35;;;;;;;8.30;7.50;;;;;;;17.07;86.01;98786.41;4148063;28;20631;-89
2022/07/06 05:11:38;;;;;;;7.87;7.17;;;;;;;17.15;85.26;98791.03;4126434;28;20652;-88
2022/07/06 05:13:45;;;;;;;8.60;7.80;;;;;;;17.19;85.95;98798.56;4128886;28;20651;-89
2022/07/06 05:15:49;;;;;;;7.97;7.27;;;;;;;17.22;86.85;98802.78;4127840;28;20648;-89
2022/07/06 05:17:52;;;;;;;7.97;7.17;;;;;;;17.25;86.14;98802.53;4143218;28;20639;-89
2022/07/06 05:19:55;;;;;;;8.60;7.70;;;;;;;17.29;86.02;98799.53;4130447;28;20985;-90
2022/07/06 05:21:59;;;;;;;8.23;7.43;;;;;;;17.34;86.31;98799.97;4124967;28;20648;-91
2022/07/06 05:24:03;;;;;;;10.17;8.10;;;;;;;17.38;86.76;98804.03;4129677;28;20770;-91
2022/07/06 05:26:06;;;;;;;9.57;7.70;;;;;;;17.43;85.25;98801.00;4131929;28;21304;-91
2022/07/06 05:28:10;;;;;;;8.77;7.50;;;;;;;17.50;85.86;98803.00;4124033;28;20737;-91
2022/07/06 05:30:16;;;;;;;8.43;7.40;;;;;;;17.61;85.13;98795.00;4124113;28;20640;-91
2022/07/06 05:32:25;;;;;;;8.40;7.60;;;;;;;17.69;84.49;98803.91;4125522;28;20623;-91
2022/07/06 05:34:28;;;;;;;8.17;7.37;;;;;;;17.76;84.88;98805.06;4131667;28;20643;-92
2022/07/06 05:36:32;;;;;;;7.73;7.13;;;;;;;17.82;84.11;98809.81;4126301;28;20698;-91
2022/07/06 05:38:35;;;;;;;8.80;7.83;;;;;;;17.89;83.50;98813.63;4129304;28;20652;-91
2022/07/06 05:40:38;;;;;;;8.50;7.70;;;;;;;17.97;84.71;98813.78;4131062;28;20656;-91
2022/07/06 05:42:42;;;;;;;8.67;7.67;;;;;;;18.07;84.62;98814.63;4124955;28;21094;-90
2022/07/06 05:44:45;;;;;;;8.33;7.33;;;;;;;18.16;83.43;98814.72;4124636;28;20633;-90
2022/07/06 05:46:50;;;;;;;9.17;7.50;;;;;;;18.30;83.78;98816.16;4144380;28;20665;-91
2022/07/06 05:51:15;;;;;;;9.27;8.47;;;;;;;18.75;82.13;98813.75;4154337;28;20638;-88
2022/07/06 05:53:20;;;;;;;8.60;7.70;;;;;;;18.83;81.71;98815.72;4149405;28;20738;-88
2022/07/06 05:55:28;;;;;;;9.83;7.63;;;;;;;18.92;80.34;98815.72;4140717;28;20758;-88
2022/07/06 05:57:32;;;;;;;8.60;7.37;;;;;;;19.00;80.73;98819.34;4149437;28;20628;-88
2022/07/06 05:59:36;;;;;;;9.00;7.80;;;;;;;19.07;79.88;98817.84;4142765;28;20628;-88
2022/07/06 06:01:39;;;;;;;12.27;8.20;;;;;;;19.17;81.39;98816.03;4142480;28;20639;-88
2022/07/06 06:03:48;;;;;;;8.80;7.73;;;;;;;19.48;79.94;98823.66;4126986;28;20662;-88
2022/07/06 06:05:52;;;;;;;9.57;8.57;;;;;;;19.89;79.48;98821.50;4130922;28;20660;-87
2022/07/06 06:07:56;;;;;;;8.20;7.40;;;;;;;20.09;78.31;98820.44;4129403;28;20657;-87
2022/07/06 06:10:01;;;;;;;9.80;7.77;;;;;;;20.28;77.37;98822.19;4143619;28;21006;-88
2022/07/06 06:12:08;;;;;;;13.40;7.70;;;;;;;20.45;76.57;98830.19;4133401;28;20642;-87
2022/07/06 06:14:11;;;;;;;7.73;7.03;;;;;;;20.60;75.42;98823.41;4126236;28;20998;-87
2022/07/06 06:16:15;;;;;;;7.20;6.60;;;;;;;20.82;74.40;98829.13;4131910;28;21239;-88
2022/07/06 06:18:19;;;;;;;8.03;7.33;;;;;;;21.08;73.27;98827.41;4126517;28;20684;-90
2022/07/06 06:20:24;;;;;;;11.90;7.87;;;;;;;21.43;73.55;98826.41;4124477;28;20639;-90
2022/07/06 06:22:27;;;;;;;14.23;8.57;;;;;;;21.81;71.72;98832.22;4146153;28;20630;-90
2022/07/06 06:24:30;;;;;;;7.73;6.70;;;;;;;22.12;71.32;98841.38;4135894;28;20619;-90
2022/07/06 06:26:34;;;;;;;8.00;6.83;;;;;;;22.47;70.10;98839.41;4141419;28;20723;-90
2022/07/06 06:28:37;;;;;;;7.30;6.60;;;;;;;22.77;68.79;98844.16;4128378;28;20618;-90
2022/07/06 06:30:40;;;;;;;7.60;6.23;;;;;;;23.02;68.05;98849.44;4132077;28;21067;-90
2022/07/06 06:32:43;;;;;;;6.90;6.20;;;;;;;23.14;66.25;98853.44;4141905;28;21243;-89
2022/07/06 06:34:46;;;;;;;6.87;6.20;;;;;;;23.29;67.07;98844.66;4141311;28;20636;-90
2022/07/06 06:36:51;;;;;;;7.60;6.23;;;;;;;23.54;66.48;98848.16;4152555;28;21080;-90
2022/07/06 06:38:54;;;;;;;8.43;6.83;;;;;;;23.63;66.42;98837.31;4124010;28;20632;-90
2022/07/06 06:40:59;;;;;;;9.87;6.50;;;;;;;23.74;65.76;98850.34;4140674;28;20719;-90
2022/07/06 06:43:02;;;;;;;8.50;6.60;;;;;;;23.97;65.62;98843.31;4149936;28;20627;-90
2022/07/06 06:45:08;;;;;;;7.00;6.20;;;;;;;24.03;65.61;98843.47;4129752;28;20625;-90
2022/07/06 06:47:11;;;;;;;6.97;6.27;;;;;;;24.02;66.84;98844.47;4141418;28;20664;-90
2022/07/06 06:49:14;;;;;;;7.70;6.40;;;;;;;24.26;65.18;98849.75;4133653;28;20722;-90
2022/07/06 06:51:17;;;;;;;6.83;5.97;;;;;;;24.39;63.10;98848.22;4139941;28;20982;-90
2022/07/06 06:53:21;;;;;;;6.60;5.83;;;;;;;24.54;62.49;98840.34;4140855;28;20635;-89
2022/07/06 06:55:24;;;;;;;6.63;5.90;;;;;;;24.75;62.84;98846.75;4128036;28;20644;-90
2022/07/06 06:57:28;;;;;;;6.80;6.10;;;;;;;25.06;63.52;98856.44;4139217;28;20634;-90
2022/07/06 06:59:31;;;;;;;8.03;5.90;;;;;;;25.18;64.16;98853.22;4158700;28;20634;-90
2022/07/06 07:01:34;;;;;;;6.57;5.93;;;;;;;25.18;62.59;98845.19;4136004;28;20645;-90
2022/07/06 07:03:38;;;;;;;10.50;5.77;;;;;;;25.25;63.48;98854.16;4140414;28;20688;-90
2022/07/06 07:05:41;;;;;;;7.80;5.40;;;;;;;25.38;61.32;98838.38;4139113;28;20667;-90
2022/07/06 07:07:44;;;;;;;7.13;5.23;;;;;;;25.44;60.94;98840.31;4145403;28;21346;-89
2022/07/06 07:09:49;;;;;;;6.23;5.60;;;;;;;25.45;60.94;98836.63;4139781;28;21230;-90
2022/07/06 07:11:52;;;;;;;5.93;5.30;;;;;;;25.51;62.75;98837.75;4157241;28;20751;-90
2022/07/06 07:13:55;;;;;;;9.00;5.60;;;;;;;25.58;61.58;98835.00;4141458;28;21495;-89
2022/07/06 07:16:19;;;;;;;7.90;4.83;;;;;;;25.75;60.08;98838.41;4119893;28;20642;-90
2022/07/06 07:18:22;;;;;;;5.73;5.10;;;;;;;25.77;58.72;98831.03;4132246;28;20674;-90
2022/07/06 07:20:26;;;;;;;7.10;6.50;;;;;;;25.87;60.02;98831.63;4139053;28;20632;-90
2022/07/06 07:22:29;;;;;;;7.53;5.30;;;;;;;25.95;58.28;98832.38;4141480;28;20648;-89
2022/07/06 07:24:43;;;;;;;6.80;6.07;;;;;;;26.02;59.47;98832.47;4135587;28;20648;-90
2022/07/06 07:26:48;;;;;;;6.77;5.33;;;;;;;26.12;58.97;98837.38;4125305;28;21060;-89
2022/07/06 07:28:51;;;;;;;5.87;5.30;;;;;;;26.23;59.94;98830.72;4142624;28;20660;-90
2022/07/06 07:30:55;;;;;;;7.00;5.07;;;;;;;26.34;58.61;98830.31;4145589;28;20637;-90
2022/07/06 07:33:00;;;;;;;5.47;4.97;;;;;;;26.37;59.30;98832.59;4136167;28;20654;-90
2022/07/06 07:35:03;;;;;;;6.30;4.73;;;;;;;26.44;60.63;98831.69;4137595;28;20656;-90
2022/07/06 07:37:06;;;;;;;5.93;5.43;;;;;;;26.60;59.87;98834.19;4128990;28;20637;-90
2022/07/06 07:39:09;;;;;;;5.80;5.30;;;;;;;26.61;58.65;98827.78;4129152;28;20734;-90
2022/07/06 07:41:13;;;;;;;6.47;5.23;;;;;;;26.66;57.66;98836.94;4125518;28;20644;-90
2022/07/06 07:43:18;;;;;;;4.83;4.43;;;;;;;26.73;59.04;98831.66;4126738;28;20698;-90
2022/07/06 07:45:21;;;;;;;6.67;5.03;;;;;;;26.77;57.51;98825.72;4118879;28;20721;-90
2022/07/06 07:47:24;;;;;;;7.00;4.70;;;;;;;26.89;59.93;98826.13;4131635;28;20671;-90
2022/07/06 07:49:27;;;;;;;6.70;4.87;;;;;;;27.04;60.30;98827.72;4132692;28;20700;-90
2022/07/06 07:51:30;;;;;;;6.23;4.70;;;;;;;27.08;57.41;98821.81;4133815;28;20699;-90
2022/07/06 07:53:34;;;;;;;6.77;5.10;;;;;;;27.17;57.97;98819.84;4143369;28;20707;-89
2022/07/06 07:55:37;;;;;;;5.60;4.97;;;;;;;27.29;57.22;98827.19;4142345;28;20723;-90
2022/07/06 07:57:44;;;;;;;5.50;4.97;;;;;;;27.33;56.77;98823.09;4125603;28;21272;-89
2022/07/06 07:59:49;;;;;;;5.43;4.93;;;;;;;27.37;56.70;98820.88;4134238;28;20635;-89
2022/07/06 08:01:52;;;;;;;5.50;5.00;;;;;;;27.34;55.99;98822.06;4125678;28;21105;-89
2022/07/06 08:03:55;;;;;;;5.47;4.60;;;;;;;27.39;57.04;98816.97;4133828;28;20619;-90
2022/07/06 08:05:58;;;;;;;5.40;4.90;;;;;;;27.42;57.44;98813.91;4141264;28;20700;-90
2022/07/06 08:08:02;;;;;;;5.30;4.70;;;;;;;27.53;55.92;98819.63;4129776;28;20690;-90
2022/07/06 08:10:05;;;;;;;6.50;5.33;;;;;;;27.51;55.74;98817.31;4142704;28;20640;-90
2022/07/06 08:12:10;;;;;;;4.90;4.50;;;;;;;27.54;56.95;98820.44;4129897;28;21576;-90
2022/07/06 08:14:14;;;;;;;6.13;4.80;;;;;;;27.59;58.02;98815.34;4132233;28;20628;-89
2022/07/06 08:16:18;;;;;;;6.70;4.97;;;;;;;27.59;56.05;98826.06;4140806;28;20716;-90
2022/07/06 08:18:22;;;;;;;6.13;4.90;;;;;;;27.59;57.51;98820.72;4128139;28;20644;-90
2022/07/06 08:20:25;;;;;;;4.87;4.40;;;;;;;27.70;59.15;98823.69;4124288;28;20662;-90
2022/07/06 08:22:30;;;;;;;7.80;5.13;;;;;;;27.72;58.46;98821.63;4124672;28;20646;-90
2022/07/06 08:24:33;;;;;;;5.50;4.90;;;;;;;27.45;58.48;98813.50;4141130;28;20631;-90
2022/07/06 08:26:37;;;;;;;5.97;5.37;;;;;;;27.58;59.92;98816.34;4127201;28;20647;-90
2022/07/06 08:28:40;;;;;;;5.17;4.60;;;;;;;27.65;58.81;98819.94;4143498;28;20673;-90
2022/07/06 08:30:43;;;;;;;6.00;5.00;;;;;;;27.70;57.27;98823.69;4142952;28;20648;-90
2022/07/06 08:32:48;;;;;;;5.20;4.70;;;;;;;27.81;57.47;98815.09;4131375;28;20689;-90
2022/07/06 08:35:10;;;;;;;7.27;5.50;;;;;;;27.83;57.16;98820.25;4137578;28;21249;-90
2022/07/06 08:37:13;;;;;;;6.00;4.93;;;;;;;27.91;56.04;98812.09;4126877;28;20638;-91
2022/07/06 08:39:17;;;;;;;5.80;5.20;;;;;;;27.81;57.37;98811.59;4136170;28;20615;-90
2022/07/06 08:41:22;;;;;;;5.83;5.23;;;;;;;27.67;56.95;98818.69;4127602;28;20677;-90
2022/07/06 08:43:28;;;;;;;5.37;4.87;;;;;;;27.75;57.18;98809.69;4153197;28;20651;-90
2022/07/06 08:45:31;;;;;;;6.00;4.73;;;;;;;27.84;57.29;98808.53;4125028;28;20642;-91
2022/07/06 08:47:36;;;;;;;5.10;4.60;;;;;;;27.74;57.38;98808.00;4127254;28;20644;-90
2022/07/06 08:49:41;;;;;;;6.53;5.43;;;;;;;27.78;56.67;98802.06;4128167;28;20703;-90
2022/07/06 08:51:46;;;;;;;8.20;4.33;;;;;;;27.79;60.22;98800.25;4130296;28;20661;-91
2022/07/06 08:53:49;;;;;;;5.13;4.50;;;;;;;27.86;57.61;98799.25;4141412;28;20643;-90
2022/07/06 08:55:53;;;;;;;5.13;4.57;;;;;;;27.93;55.43;98801.97;4128460;28;20635;-90
2022/07/06 08:57:56;;;;;;;13.27;5.83;;;;;;;27.91;56.10;98804.03;4130227;28;20647;-91
2022/07/06 08:59:59;;;;;;;6.53;4.60;;;;;;;27.90;55.84;98808.56;4144427;28;20649;-90
2022/07/06 09:02:04;;;;;;;5.50;5.00;;;;;;;27.94;57.44;98798.28;4144889;28;20705;-90
2022/07/06 09:04:07;;;;;;;5.60;5.10;;;;;;;27.99;56.31;98806.56;4142502;28;20689;-89
2022/07/06 09:06:16;;;;;;;5.60;5.00;;;;;;;28.06;58.03;98803.72;4122305;28;20672;-90
2022/07/06 09:08:19;;;;;;;7.93;4.70;;;;;;;28.11;55.90;98809.34;4130566;28;20769;-91
2022/07/06 09:10:23;;;;;;;4.93;4.53;;;;;;;28.01;54.93;98810.72;4125813;28;20738;-91
2022/07/06 09:12:27;;;;;;;6.20;5.40;;;;;;;27.98;56.33;98812.94;4124586;28;20645;-91
2022/07/06 09:14:30;;;;;;;5.30;4.80;;;;;;;27.99;54.68;98812.75;4130603;28;20638;-90
2022/07/06 09:16:33;;;;;;;6.13;5.10;;;;;;;27.97;56.17;98816.69;4143896;28;20638;-90
2022/07/06 09:18:45;;;;;;;6.30;5.00;;;;;;;27.99;56.87;98814.63;4146291;28;21259;-90
2022/07/06 09:20:48;;;;;;;6.03;5.43;;;;;;;27.91;55.40;98807.53;4142730;28;20819;-90
2022/07/06 09:22:59;;;;;;;5.73;5.20;;;;;;;27.84;56.50;98805.84;4128837;28;21240;-90
2022/07/06 09:25:05;;;;;;;8.00;5.33;;;;;;;27.90;57.14;98816.59;4141164;28;21063;-90
2022/07/06 09:27:16;;;;;;;5.50;5.00;;;;;;;27.77;57.50;98810.31;4127243;28;20989;-90
2022/07/06 09:29:19;;;;;;;5.70;5.03;;;;;;;27.76;56.13;98814.03;4143824;28;20771;-90
2022/07/06 09:31:28;;;;;;;5.70;5.10;;;;;;;27.88;57.85;98813.31;4126119;28;20719;-90
2022/07/06 09:33:31;;;;;;;6.87;5.00;;;;;;;27.95;57.56;98818.72;4145661;28;21036;-90
2022/07/06 09:35:38;;;;;;;5.77;5.17;;;;;;;28.02;57.41;98817.72;4128309;28;21099;-90
2022/07/06 09:37:41;;;;;;;7.80;5.50;;;;;;;28.02;55.38;98821.28;4129849;28;21214;-90
2022/07/06 09:39:46;;;;;;;7.13;5.70;;;;;;;27.91;55.55;98820.16;4137736;28;20647;-90
2022/07/06 09:41:50;;;;;;;6.27;4.77;;;;;;;27.88;56.04;98821.34;4128622;28;20639;-90
2022/07/06 09:43:53;;;;;;;6.10;5.50;;;;;;;27.87;55.91;98821.53;4126787;28;20635;-91
2022/07/06 09:45:57;;;;;;;5.17;4.77;;;;;;;27.90;55.50;98834.56;4128363;28;20795;-91
2022/07/06 09:48:07;;;;;;;5.27;4.77;;;;;;;27.97;55.65;98824.72;4127579;28;20656;-90
2022/07/06 09:50:10;;;;;;;13.50;5.87;;;;;;;28.08;58.44;98833.91;4134846;28;20690;-90
2022/07/06 09:52:14;;;;;;;5.93;5.33;;;;;;;28.03;55.72;98836.31;4137090;28;20636;-90
2022/07/06 09:54:17;;;;;;;7.30;5.43;;;;;;;28.02;55.98;98829.31;4129636;28;20724;-91